WetterOnline ( https://www.wetteronline.de )

Wetter aktuell Spijk

Aktuelles Wetter: Emden (5m)

6-stündlich | Neueste Meldungen
Ortszeit Temperatur Wetter
Sa, 19.09. 8:00 9.0° C wolkig
Sa, 19.09. 2:00 9.9° C wolkenlos
Fr, 18.09. 20:00 14.0° C wolkenlos
Fr, 18.09. 14:00 17.7° C wolkenlos
Fr, 18.09. 8:00 6.8° C wolkenlos
Fr, 18.09. 2:00 6.7° C wolkenlos
Do, 17.09. 20:00 11.1° C wolkenlos
Do, 17.09. 14:00 16.8° C wolkenlos
Ortszeit Temperatur Wetter
Sa, 19.09. 8:30 9.3° C wolkig
Sa, 19.09. 8:20 9.3° C wolkig
Sa, 19.09. 8:10 9.2° C wolkig
Sa, 19.09. 8:00 9.0° C wolkig
Sa, 19.09. 7:50 9.0° C wolkig
Sa, 19.09. 7:40 9.1° C wolkig
Sa, 19.09. 7:30 8.8° C wolkig
Sa, 19.09. 7:00 8.7° C wolkig
Sa, 19.09. 6:30 8.4° C leicht bewölkt
Sa, 19.09. 6:00 9.0° C wolkenlos
Sa, 19.09. 5:30 9.4° C wolkenlos
Ortszeit Relative Feuchte Sichtweite
Sa, 19.09. 8:00 84% 60 km
Sa, 19.09. 2:00 79% 65 km
Fr, 18.09. 20:00 68% 65 km
Fr, 18.09. 14:00 41% >70 km
Fr, 18.09. 8:00 87% 50 km
Fr, 18.09. 2:00 95% 55 km
Do, 17.09. 20:00 80% 50 km
Do, 17.09. 14:00 47% >70 km
Ortszeit Relative Feuchte Sichtweite
Sa, 19.09. 8:30 82% 65 km
Sa, 19.09. 8:20 82% -
Sa, 19.09. 8:10 83% -
Sa, 19.09. 8:00 84% 60 km
Sa, 19.09. 7:50 84% -
Sa, 19.09. 7:40 84% -
Sa, 19.09. 7:30 85% 55 km
Sa, 19.09. 7:00 84% 60 km
Sa, 19.09. 6:30 85% 60 km
Sa, 19.09. 6:00 84% >70 km
Sa, 19.09. 5:30 82% >70 km
Ortszeit Niederschlagsmenge Niederschlagsart
Sa, 19.09. 8:00 0.0 l/m2 in 12 Std. -
Sa, 19.09. 2:00 0.0 l/m2 in 6 Std. -
Fr, 18.09. 20:00 0.0 l/m2 in 12 Std. -
Fr, 18.09. 14:00 0.0 l/m2 in 6 Std. -
Fr, 18.09. 8:00 0.0 l/m2 in 12 Std. -
Fr, 18.09. 2:00 0.0 l/m2 in 6 Std. -
Do, 17.09. 20:00 0.0 l/m2 in 12 Std. -
Do, 17.09. 14:00 0.0 l/m2 in 6 Std. -
Ortszeit Niederschlagsmenge Niederschlagsart
Sa, 19.09. 8:30 0.0 l/m2 in 1 Std. -
Sa, 19.09. 8:20 keine Meldung -
Sa, 19.09. 8:10 keine Meldung -
Sa, 19.09. 8:00 0.0 l/m2 in 1 Std. -
Sa, 19.09. 7:50 keine Meldung -
Sa, 19.09. 7:40 keine Meldung -
Sa, 19.09. 7:30 0.0 l/m2 in 1 Std. -
Sa, 19.09. 7:00 0.0 l/m2 in 1 Std. -
Sa, 19.09. 6:30 0.0 l/m2 in 1 Std. -
Sa, 19.09. 6:00 0.0 l/m2 in 1 Std. -
Sa, 19.09. 5:30 0.0 l/m2 in 1 Std. -
Ortszeit Stärke Spitze Richtung
km/h Bft. km/h Grad Sektor
Sa, 19.09. 8:00 13 3 20 70° O
Sa, 19.09. 2:00 9 2 19 60° NO
Fr, 18.09. 20:00 11 2 36 40° NO
Fr, 18.09. 14:00 22 4 36 90° O
Fr, 18.09. 8:00 9 2 15 60° NO
Fr, 18.09. 2:00 9 2 17 60° NO
Do, 17.09. 20:00 7 2 29 30° NO
Do, 17.09. 14:00 14 3 29 50° NO
Ortszeit Stärke Spitze Richtung
km/h Bft. km/h Grad Sektor
Sa, 19.09. 8:30 13 3 19 70° O
Sa, 19.09. 8:20 13 3 - 70° O
Sa, 19.09. 8:10 13 3 - 70° O
Sa, 19.09. 8:00 13 3 19 70° O
Sa, 19.09. 7:50 13 3 - 70° O
Sa, 19.09. 7:40 13 3 - 60° NO
Sa, 19.09. 7:30 11 2 18 60° NO
Sa, 19.09. 7:00 11 2 18 60° NO
Sa, 19.09. 6:30 11 2 17 60° NO
Sa, 19.09. 6:00 11 2 18 60° NO
Sa, 19.09. 5:30 11 2 14 50° NO
Ortszeit Untergrenze Bedeckung Gattung
total tief tief mittel hoch
Sa, 19.09. 8:00 8100 m 8/8 0/8 - - -
Sa, 19.09. 2:00 - 0/8 0/8 - - -
Fr, 18.09. 20:00 10500 m 0/8 0/8 - - -
Fr, 18.09. 14:00 - 0/8 0/8 - - -
Fr, 18.09. 8:00 - 0/8 0/8 - - -
Fr, 18.09. 2:00 - 0/8 0/8 - - -
Do, 17.09. 20:00 12000 m 0/8 0/8 - - -
Do, 17.09. 14:00 8700 m 0/8 0/8 - - -
Ortszeit Bedeckungsgrad in Achtel und Wolkenuntergrenze
Sa, 19.09. 8:30 8(7800m) 8(9000m)
Sa, 19.09. 8:20 8(7800m) 8(9000m)
Sa, 19.09. 8:10 8(7800m)
Sa, 19.09. 8:00 8(8100m)
Sa, 19.09. 7:50 8(8100m)
Sa, 19.09. 7:40 8(8100m)
Sa, 19.09. 7:30 8(7800m)
Sa, 19.09. 7:00 7(7800m) 8(9000m)
Sa, 19.09. 6:30 2(9000m) 3(10500m) 6(10500m)
Sa, 19.09. 6:00 keine Wolken
Sa, 19.09. 5:30 keine Wolken
Ortszeit Luftdruck NN (hPa) Tendenz (hPa in 3 Std.)
Sa, 19.09. 8:00 1023 - 0,5
Sa, 19.09. 2:00 1025 - 1,0
Fr, 18.09. 20:00 1026 - 0,6
Fr, 18.09. 14:00 1028 - 1,8
Fr, 18.09. 8:00 1030 - 0,1
Fr, 18.09. 2:00 1030 - 0,3
Do, 17.09. 20:00 1030 - 0,2
Do, 17.09. 14:00 1031 - 0,7
Ortszeit Luftdruck NN (hPa) Tendenz (hPa in 3 Std.)
Sa, 19.09. 8:30 1023 - 0,6
Sa, 19.09. 8:20 1023 keine Meldung
Sa, 19.09. 8:10 1023 keine Meldung
Sa, 19.09. 8:00 1023 - 0,5
Sa, 19.09. 7:50 1023 keine Meldung
Sa, 19.09. 7:40 1023 keine Meldung
Sa, 19.09. 7:30 1023 - 0,9
Sa, 19.09. 7:00 1023 - 0,8
Sa, 19.09. 6:30 1023 - 1,3
Sa, 19.09. 6:00 1024 - 1,3
Sa, 19.09. 5:30 1024 - 1,2
Ortszeit Schneehöhe (cm)
Sa, 19.09. 8:00 -
Sa, 19.09. 2:00 -
Fr, 18.09. 20:00 -
Fr, 18.09. 14:00 -
Fr, 18.09. 8:00 -
Fr, 18.09. 2:00 -
Do, 17.09. 20:00 -
Do, 17.09. 14:00 -
Ortszeit Schneehöhe (cm)
Sa, 19.09. 8:30 -
Sa, 19.09. 8:20 -
Sa, 19.09. 8:10 -
Sa, 19.09. 8:00 -
Sa, 19.09. 7:50 -
Sa, 19.09. 7:40 -
Sa, 19.09. 7:30 -
Sa, 19.09. 7:00 -
Sa, 19.09. 6:30 -
Sa, 19.09. 6:00 -
Sa, 19.09. 5:30 -
Link zu dieser Seite / Seite empfehlen

Das Wetter in ...